Time;durP1;ratioP1;P1;durP2;ratioP2;P2;SDS_P1;SDS_P2;PMS_P1;PMS_P2;Temp;Humidity;BMP_temperature;BMP_pressure;BME280_temperature;BME280_humidity;BME280_pressure;Samples;Min_cycle;Max_cycle;Signal;HPM_P1;HPM_P2
2022/05/29 05:01:57;;;;;;;5.72;1.60;;;11.30;91.90;;;;;;6131049;23;20030;-81
2022/05/29 05:04:23;;;;;;;5.10;1.60;;;11.30;92.30;;;;;;6197308;23;20016;-80
2022/05/29 05:10:45;;;;;;;5.07;1.88;;;11.40;92.40;;;;;;6226446;23;20008;-80
2022/05/29 05:13:10;;;;;;;4.10;2.08;;;11.50;92.30;;;;;;6223341;23;20019;-80
2022/05/29 05:15:36;;;;;;;4.25;1.77;;;11.50;92.60;;;;;;6223329;23;20009;-80
2022/05/29 05:18:03;;;;;;;5.07;1.60;;;11.50;92.20;;;;;;6197986;23;19988;-81
2022/05/29 05:20:30;;;;;;;4.10;1.80;;;11.60;92.30;;;;;;6197638;23;20004;-79
2022/05/29 05:22:57;;;;;;;5.47;1.85;;;11.60;92.40;;;;;;6223943;23;20035;-79
2022/05/29 05:25:23;;;;;;;5.30;2.05;;;11.60;92.10;;;;;;6197268;23;20186;-79
2022/05/29 05:27:49;;;;;;;4.20;1.88;;;11.60;92.50;;;;;;6199214;23;20004;-79
2022/05/29 05:30:20;;;;;;;7.20;2.10;;;11.50;92.60;;;;;;6224459;23;20001;-79
2022/05/29 05:32:46;;;;;;;4.55;1.88;;;11.40;92.30;;;;;;6199323;23;20059;-81
2022/05/29 05:35:12;;;;;;;5.82;1.90;;;11.30;92.40;;;;;;6198134;23;20279;-84
2022/05/29 05:37:39;;;;;;;5.38;1.98;;;11.30;92.20;;;;;;6225394;23;20004;-81
2022/05/29 05:40:09;;;;;;;4.88;1.77;;;11.30;92.50;;;;;;6198007;23;20008;-83
2022/05/29 05:42:36;;;;;;;4.85;2.15;;;11.30;92.00;;;;;;6199113;23;20004;-82
2022/05/29 05:45:04;;;;;;;4.03;1.70;;;11.20;92.20;;;;;;6198630;23;20000;-81
2022/05/29 05:51:00;;;;;;;5.85;2.08;;;11.40;92.10;;;;;;6225441;23;20282;-80
2022/05/29 05:53:26;;;;;;;5.28;2.15;;;11.50;91.60;;;;;;6225140;23;20003;-82
2022/05/29 05:55:52;;;;;;;4.40;1.80;;;11.60;91.10;;;;;;6224997;23;20052;-82
2022/05/29 05:58:18;;;;;;;4.88;1.70;;;11.60;90.70;;;;;;6224555;23;20000;-81
2022/05/29 06:00:45;;;;;;;4.38;1.98;;;11.70;91.20;;;;;;6224293;23;20026;-78
2022/05/29 06:03:11;;;;;;;5.00;1.70;;;11.80;91.10;;;;;;6224591;23;20085;-78
2022/05/29 06:05:37;;;;;;;4.32;1.70;;;11.90;91.00;;;;;;6224694;23;20005;-79
2022/05/29 06:08:03;;;;;;;4.28;1.65;;;11.90;90.60;;;;;;6198996;23;19989;-78
2022/05/29 06:10:29;;;;;;;7.65;1.80;;;11.90;90.10;;;;;;6173541;23;20043;-78
2022/05/29 06:12:56;;;;;;;3.42;1.73;;;12.00;90.70;;;;;;6198593;23;19996;-78
2022/05/29 06:15:47;;;;;;;4.70;1.80;;;12.10;90.60;;;;;;6197711;23;20017;-78
2022/05/29 06:18:14;;;;;;;5.88;1.38;;;12.30;90.50;;;;;;6198344;23;20000;-78
2022/05/29 06:20:41;;;;;;;6.78;1.40;;;12.50;88.30;;;;;;6225722;23;20011;-79
2022/05/29 06:23:07;;;;;;;4.07;1.60;;;12.70;87.70;;;;;;6224887;23;20059;-77
2022/05/29 06:25:42;;;;;;;4.70;1.70;;;12.90;86.40;;;;;;6199326;23;20001;-78
2022/05/29 06:28:09;;;;;;;4.13;1.60;;;13.00;85.70;;;;;;6173897;23;20005;-77
2022/05/29 06:30:35;;;;;;;2.60;1.30;;;13.40;85.40;;;;;;6172835;23;19989;-78
2022/05/29 06:33:02;;;;;;;4.22;1.15;;;13.70;84.00;;;;;;6226280;23;20267;-78
2022/05/29 06:35:28;;;;;;;3.80;1.40;;;13.90;82.10;;;;;;6201118;23;20027;-78
2022/05/29 06:37:54;;;;;;;6.40;1.45;;;14.10;81.50;;;;;;6224616;23;20274;-78
2022/05/29 06:40:21;;;;;;;3.83;1.15;;;14.40;81.80;;;;;;6198113;23;20008;-78
2022/05/29 06:42:47;;;;;;;2.50;1.02;;;14.70;80.90;;;;;;6199143;23;20176;-78
2022/05/29 06:45:17;;;;;;;4.32;1.40;;;14.90;79.90;;;;;;6198685;23;20007;-79
2022/05/29 06:47:43;;;;;;;7.40;1.73;;;15.00;78.60;;;;;;6199343;23;20021;-78
2022/05/29 06:50:10;;;;;;;3.67;1.42;;;14.60;78.40;;;;;;6224591;23;20020;-79
2022/05/29 06:52:36;;;;;;;5.70;1.17;;;14.60;80.00;;;;;;6173988;23;20043;-80
2022/05/29 06:55:03;;;;;;;3.95;1.20;;;14.60;79.10;;;;;;6225189;23;20020;-80
2022/05/29 06:57:40;;;;;;;6.22;1.30;;;14.70;78.70;;;;;;6198350;23;19997;-80
2022/05/29 07:10:07;;;;;;;4.75;1.30;;;15.10;77.50;;;;;;6224712;23;20004;-81
2022/05/29 07:12:35;;;;;;;3.72;1.00;;;15.20;76.50;;;;;;6224598;23;20298;-82
2022/05/29 07:15:06;;;;;;;3.38;1.17;;;15.20;77.00;;;;;;6224996;23;19997;-78
2022/05/29 07:17:32;;;;;;;5.28;1.13;;;15.30;77.10;;;;;;6197935;23;20016;-79
2022/05/29 07:19:58;;;;;;;4.10;1.17;;;15.40;75.80;;;;;;6198595;23;20008;-79
2022/05/29 07:22:26;;;;;;;5.93;1.38;;;15.40;76.10;;;;;;6224694;23;20056;-79
2022/05/29 07:24:51;;;;;;;4.22;1.10;;;15.40;75.60;;;;;;6198686;23;20193;-78
2022/05/29 07:27:54;;;;;;;3.95;1.13;;;15.30;74.70;;;;;;6224776;23;19997;-80
2022/05/29 07:30:20;;;;;;;4.00;1.20;;;15.40;75.20;;;;;;6227085;23;20023;-78
2022/05/29 07:32:48;;;;;;;4.93;1.10;;;15.60;75.40;;;;;;6209273;23;20001;-77
2022/05/29 07:35:17;;;;;;;4.32;1.20;;;15.80;73.20;;;;;;6198643;23;19996;-77
2022/05/29 07:37:43;;;;;;;3.10;0.98;;;16.00;73.70;;;;;;6223924;23;20270;-77
2022/05/29 07:40:15;;;;;;;4.28;1.10;;;16.20;72.90;;;;;;6223289;23;19996;-78
2022/05/29 07:45:32;;;;;;;3.97;1.15;;;16.20;71.70;;;;;;6195352;23;20009;-78
2022/05/29 07:48:10;;;;;;;6.07;1.23;;;16.30;71.90;;;;;;6223358;23;20024;-78
2022/05/29 07:50:35;;;;;;;6.40;1.17;;;16.40;71.10;;;;;;6196766;23;20024;-78
2022/05/29 07:53:02;;;;;;;2.53;1.10;;;16.50;70.40;;;;;;6197034;23;20008;-78
2022/05/29 07:55:28;;;;;;;5.55;1.08;;;16.60;70.00;;;;;;6222508;23;20186;-78
2022/05/29 07:57:53;;;;;;;3.13;0.88;;;16.90;70.20;;;;;;6197090;23;20028;-80
2022/05/29 08:00:20;;;;;;;5.65;1.20;;;17.50;68.40;;;;;;6195209;23;20007;-77
2022/05/29 08:02:46;;;;;;;2.88;0.90;;;17.80;67.20;;;;;;6206771;23;20121;-78
2022/05/29 08:05:15;;;;;;;4.50;1.10;;;18.10;66.20;;;;;;6192655;23;20001;-77
2022/05/29 08:07:41;;;;;;;4.68;1.23;;;18.30;65.80;;;;;;6166911;23;20033;-79
2022/05/29 08:10:08;;;;;;;3.92;1.17;;;18.20;66.40;;;;;;6193379;23;20043;-80
2022/05/29 08:12:38;;;;;;;4.60;1.20;;;18.20;67.80;;;;;;6192857;23;20004;-78
2022/05/29 08:15:04;;;;;;;4.40;1.38;;;17.90;67.50;;;;;;6165984;23;20005;-77
2022/05/29 08:17:29;;;;;;;4.03;1.10;;;17.60;69.30;;;;;;6192453;23;19989;-78
2022/05/29 08:19:55;;;;;;;4.85;1.27;;;17.40;69.10;;;;;;6193073;23;20047;-78
2022/05/29 08:22:21;;;;;;;2.63;1.10;;;17.30;70.10;;;;;;6192809;23;20005;-79
2022/05/29 08:30:38;;;;;;;5.97;1.35;;;16.90;69.70;;;;;;6164059;23;20068;-78
2022/05/29 08:33:06;;;;;;;3.53;1.15;;;16.60;71.20;;;;;;6193097;23;20005;-75
2022/05/29 08:35:33;;;;;;;5.32;1.60;;;16.60;71.00;;;;;;6191861;23;19997;-78
2022/05/29 08:38:00;;;;;;;4.13;1.05;;;16.70;71.00;;;;;;6192974;23;20244;-76
2022/05/29 08:40:28;;;;;;;5.47;1.60;;;16.80;70.50;;;;;;6166587;23;20395;-77
2022/05/29 08:42:54;;;;;;;4.23;1.07;;;16.80;70.40;;;;;;6193491;23;20001;-76
2022/05/29 08:45:20;;;;;;;6.80;1.30;;;17.10;68.70;;;;;;6165184;23;20069;-77
2022/05/29 08:47:47;;;;;;;3.63;1.13;;;17.30;68.30;;;;;;6192911;23;20017;-78
2022/05/29 08:50:23;;;;;;;3.85;1.10;;;17.40;68.50;;;;;;6166955;23;19997;-78
2022/05/29 08:57:15;;;;;;;3.72;1.25;;;17.70;67.80;;;;;;6193110;23;20345;-77
2022/05/29 09:00:00;;;;;;;4.75;1.30;;;17.70;66.90;;;;;;6141944;23;19997;-79
2022/05/29 09:02:34;;;;;;;4.03;1.05;;;17.20;67.70;;;;;;6178418;23;20024;-75
2022/05/29 09:05:30;;;;;;;4.93;1.50;;;16.90;69.10;;;;;;6224657;23;20313;-77
2022/05/29 09:07:58;;;;;;;4.13;1.10;;;16.50;71.20;;;;;;6217544;23;20007;-76
2022/05/29 09:10:49;;;;;;;8.68;1.92;;;16.10;73.10;;;;;;6224790;23;20015;-78
2022/05/29 09:13:20;;;;;;;3.28;1.40;;;15.80;74.50;;;;;;6224907;23;20066;-78
2022/05/29 09:15:56;;;;;;;5.35;1.40;;;15.80;74.40;;;;;;6224362;23;20036;-77
2022/05/29 09:18:28;;;;;;;3.78;1.17;;;15.60;75.30;;;;;;6219510;23;20008;-77
2022/05/29 09:21:03;;;;;;;4.10;1.65;;;15.70;75.10;;;;;;6230204;23;20005;-78
2022/05/29 09:23:44;;;;;;;5.78;1.13;;;15.90;74.60;;;;;;6225871;23;20005;-76
2022/05/29 09:26:16;;;;;;;6.60;1.52;;;16.00;74.60;;;;;;6224794;23;20016;-75
2022/05/29 09:28:42;;;;;;;5.03;1.52;;;15.80;75.40;;;;;;6200180;23;20004;-78
2022/05/29 09:35:05;;;;;;;5.90;1.60;;;15.60;77.10;;;;;;6224311;23;20064;-78
2022/05/29 09:38:14;;;;;;;9.48;1.70;;;15.60;76.80;;;;;;6224447;23;20011;-77
2022/05/29 09:40:52;;;;;;;4.22;1.33;;;15.80;76.30;;;;;;6167766;23;20008;-78
2022/05/29 09:44:15;;;;;;;5.53;1.52;;;15.80;76.50;;;;;;6197926;23;20008;-78
2022/05/29 09:46:46;;;;;;;5.38;1.50;;;16.20;75.90;;;;;;6073286;23;20015;-76
2022/05/29 09:49:41;;;;;;;5.93;1.23;;;16.40;72.10;;;;;;6074593;23;20007;-76
2022/05/29 09:56:03;;;;;;;6.50;1.60;;;16.40;72.30;;;;;;6224060;23;20001;-79
2022/05/29 09:58:39;;;;;;;5.55;1.20;;;16.40;71.70;;;;;;6223828;23;19996;-77
2022/05/29 10:01:08;;;;;;;7.50;1.77;;;16.40;72.40;;;;;;6196831;23;20063;-79
2022/05/29 10:03:53;;;;;;;6.97;1.67;;;16.50;72.90;;;;;;6223467;23;20322;-79
2022/05/29 10:06:22;;;;;;;6.78;1.48;;;16.40;73.60;;;;;;6224234;23;19996;-77
2022/05/29 10:08:49;;;;;;;6.00;1.50;;;16.40;72.60;;;;;;6198012;23;20012;-77
2022/05/29 10:11:30;;;;;;;6.25;1.50;;;16.60;72.40;;;;;;6197630;23;20459;-78
2022/05/29 10:13:56;;;;;;;5.13;1.23;;;16.60;72.90;;;;;;6197375;23;20012;-78
2022/05/29 10:16:39;;;;;;;4.25;1.25;;;16.70;71.70;;;;;;6223498;23;20012;-78
2022/05/29 10:19:11;;;;;;;5.25;1.20;;;16.80;70.90;;;;;;6224635;23;20008;-78
2022/05/29 10:21:50;;;;;;;3.38;1.10;;;16.80;70.30;;;;;;6223995;23;20309;-78
2022/05/29 10:24:21;;;;;;;5.28;1.00;;;16.80;69.10;;;;;;6224284;23;20000;-78
2022/05/29 10:26:59;;;;;;;3.70;1.17;;;16.80;68.90;;;;;;6197389;23;20001;-79
2022/05/29 10:29:39;;;;;;;5.00;1.17;;;16.70;68.20;;;;;;6197291;23;20052;-80
2022/05/29 10:32:08;;;;;;;3.50;1.30;;;16.40;69.30;;;;;;6197086;23;20055;-79
2022/05/29 10:34:39;;;;;;;4.07;1.25;;;16.20;68.70;;;;;;6223917;23;20076;-80
2022/05/29 10:37:37;;;;;;;3.45;0.90;;;16.00;69.80;;;;;;6197950;23;20005;-79
2022/05/29 10:43:38;;;;;;;3.75;1.10;;;15.70;71.60;;;;;;6197383;23;20289;-78
2022/05/29 10:46:22;;;;;;;4.93;1.33;;;15.30;71.50;;;;;;6195641;23;20043;-80
2022/05/29 10:49:29;;;;;;;4.00;1.15;;;15.00;73.00;;;;;;6197362;23;20075;-78
2022/05/29 10:52:48;;;;;;;5.35;1.60;;;14.70;76.20;;;;;;6171130;23;20009;-79
2022/05/29 10:56:07;;;;;;;6.32;1.25;;;14.50;79.40;;;;;;6172733;23;20004;-78
2022/05/29 10:58:42;;;;;;;5.05;1.40;;;14.30;80.30;;;;;;6197648;23;20008;-78
2022/05/29 11:08:47;;;;;;;3.25;1.27;;;14.00;82.00;;;;;;6193065;23;20000;-79
2022/05/29 11:11:50;;;;;;;5.97;1.40;;;14.40;80.10;;;;;;6143225;23;20004;-79
2022/05/29 11:14:49;;;;;;;5.32;1.33;;;14.60;78.30;;;;;;6142911;23;20008;-78
2022/05/29 11:21:08;;;;;;;5.93;1.20;;;15.60;75.80;;;;;;6194131;23;20056;-80
2022/05/29 11:23:55;;;;;;;3.58;0.90;;;15.40;78.10;;;;;;6188536;23;20009;-79
2022/05/29 11:30:10;;;;;;;3.78;0.90;;;16.00;71.80;;;;;;6194376;23;20015;-78
2022/05/29 11:33:07;;;;;;;3.60;1.10;;;16.70;69.40;;;;;;6167984;23;20048;-78
2022/05/29 11:35:51;;;;;;;5.75;1.10;;;17.00;70.00;;;;;;6192622;23;20035;-77
2022/05/29 11:38:39;;;;;;;2.92;0.73;;;17.40;68.10;;;;;;6167318;23;20005;-79
2022/05/29 11:41:10;;;;;;;2.70;0.82;;;17.50;68.00;;;;;;6143480;23;20016;-79
2022/05/29 11:44:05;;;;;;;3.25;0.70;;;18.00;66.30;;;;;;6193323;23;20202;-78
2022/05/29 11:52:20;;;;;;;1.83;0.50;;;18.90;63.90;;;;;;6193616;23;20048;-79
2022/05/29 11:54:58;;;;;;;3.40;0.85;;;19.70;62.20;;;;;;6193286;23;20316;-79
2022/05/29 11:57:42;;;;;;;7.40;1.53;;;20.00;62.70;;;;;;6167218;23;20004;-80
2022/05/29 12:00:31;;;;;;;2.35;0.75;;;20.50;63.50;;;;;;6192596;23;20290;-78
2022/05/29 12:03:03;;;;;;;3.67;1.00;;;20.80;62.50;;;;;;6157010;23;20013;-79
2022/05/29 12:05:42;;;;;;;3.67;1.13;;;21.80;62.10;;;;;;6222954;23;20001;-81
2022/05/29 12:08:19;;;;;;;3.90;1.23;;;22.70;60.60;;;;;;6196935;23;20008;-78
2022/05/29 12:10:59;;;;;;;9.88;1.73;;;23.00;59.50;;;;;;6170913;23;20175;-79
2022/05/29 12:13:31;;;;;;;4.05;1.00;;;22.20;60.80;;;;;;6222911;23;20191;-78
2022/05/29 12:16:08;;;;;;;3.35;0.90;;;22.60;61.40;;;;;;6195824;23;20059;-78
2022/05/29 12:18:49;;;;;;;3.40;0.90;;;24.10;57.90;;;;;;6222336;23;20005;-79
2022/05/29 12:21:38;;;;;;;3.47;0.90;;;24.90;57.10;;;;;;6222362;23;20240;-79
2022/05/29 12:24:10;;;;;;;4.47;1.20;;;25.30;55.30;;;;;;6223228;23;19997;-78
2022/05/29 12:27:15;;;;;;;2.60;0.70;;;27.70;53.20;;;;;;6222660;23;20009;-78
2022/05/29 12:30:08;;;;;;;4.05;0.85;;;27.40;51.60;;;;;;6222915;23;20020;-79
2022/05/29 12:32:35;;;;;;;2.60;0.77;;;27.00;52.30;;;;;;6195100;23;20038;-79
2022/05/29 12:38:37;;;;;;;3.45;0.80;;;27.90;50.70;;;;;;6224591;23;20005;-78
2022/05/29 12:41:34;;;;;;;2.95;0.82;;;28.50;51.30;;;;;;6198384;23;20064;-77
2022/05/29 12:44:23;;;;;;;2.70;0.80;;;27.70;51.40;;;;;;6224312;23;19996;-79
2022/05/29 12:47:30;;;;;;;3.55;1.02;;;28.80;50.20;;;;;;6196828;23;20096;-78
2022/05/29 12:50:20;;;;;;;3.97;1.05;;;29.20;48.90;;;;;;6224692;23;20336;-78
2022/05/29 12:53:04;;;;;;;2.63;0.80;;;29.00;49.40;;;;;;6224552;23;19997;-77
2022/05/29 12:59:19;;;;;;;1.85;0.50;;;30.80;45.60;;;;;;6197226;23;20015;-77
2022/05/29 13:02:15;;;;;;;2.30;0.50;;;30.40;45.50;;;;;;6223260;23;20017;-78
2022/05/29 13:05:06;;;;;;;2.72;0.60;;;29.90;45.40;;;;;;6194038;23;20191;-77
2022/05/29 13:08:10;;;;;;;1.83;0.60;;;30.20;46.40;;;;;;6166545;23;20008;-78
2022/05/29 13:10:40;;;;;;;2.30;0.50;;;31.80;46.10;;;;;;6193750;23;20008;-78
2022/05/29 13:13:13;;;;;;;2.72;0.70;;;33.10;44.50;;;;;;6193795;23;20013;-78
2022/05/29 13:16:10;;;;;;;2.92;0.57;;;33.40;43.30;;;;;;6193815;23;20038;-79
2022/05/29 13:21:12;;;;;;;2.03;0.47;;;33.80;42.60;;;;;;6169814;23;20020;-78
2022/05/29 13:24:15;;;;;;;2.65;0.60;;;33.90;42.80;;;;;;6197999;23;20067;-79
2022/05/29 13:26:43;;;;;;;1.98;0.50;;;34.90;42.50;;;;;;6165517;23;20287;-79
2022/05/29 13:33:28;;;;;;;1.75;0.40;;;36.30;40.60;;;;;;6192888;23;20069;-77
2022/05/29 13:35:54;;;;;;;3.08;0.70;;;35.50;40.80;;;;;;6166965;23;20219;-78
2022/05/29 13:38:49;;;;;;;1.60;0.43;;;35.60;40.80;;;;;;6193982;23;20012;-78
2022/05/29 13:44:50;;;;;;;2.58;0.60;;;34.10;41.20;;;;;;6193502;23;20110;-79
2022/05/29 13:47:18;;;;;;;2.65;0.50;;;34.40;41.70;;;;;;6167234;23;20016;-78
2022/05/29 13:50:00;;;;;;;2.08;0.50;;;35.90;41.10;;;;;;6193470;23;20001;-78
2022/05/29 13:52:44;;;;;;;2.58;0.50;;;37.10;39.80;;;;;;6193935;23;20053;-78
2022/05/29 13:55:17;;;;;;;1.95;0.43;;;37.80;40.20;;;;;;6193989;23;20008;-78
2022/05/29 14:07:26;;;;;;;2.67;0.50;;;36.40;38.80;;;;;;6193153;23;20048;-78
2022/05/29 14:10:20;;;;;;;2.47;0.50;;;31.40;43.60;;;;;;6180696;23;20001;-78
2022/05/29 14:12:58;;;;;;;3.95;0.93;;;28.40;46.10;;;;;;6189502;23;20294;-78
2022/05/29 14:15:30;;;;;;;;;;;27.20;47.90;;;;;;6193289;23;20008;-77
2022/05/29 14:18:00;;;;;;;2.38;0.70;;;25.80;48.50;;;;;;6190867;23;19908;-77
2022/05/29 14:20:54;;;;;;;2.00;0.60;;;24.40;50.30;;;;;;6193136;23;20005;-79
2022/05/29 14:23:30;;;;;;;3.85;0.70;;;23.30;51.70;;;;;;6193960;23;20016;-78
2022/05/29 14:26:20;;;;;;;5.80;1.23;;;22.60;52.60;;;;;;6194308;23;20032;-79
2022/05/29 14:28:52;;;;;;;2.70;0.85;;;21.70;53.60;;;;;;6194932;23;20001;-79
2022/05/29 14:31:25;;;;;;;4.32;1.48;;;20.60;56.50;;;;;;6194755;23;20068;-80
2022/05/29 14:34:21;;;;;;;3.00;0.75;;;19.80;59.00;;;;;;6168189;23;20001;-79
2022/05/29 14:37:13;;;;;;;3.00;0.90;;;18.90;61.30;;;;;;6167733;23;20179;-77
2022/05/29 14:40:11;;;;;;;2.90;0.90;;;18.20;71.50;;;;;;6167777;23;19997;-80
2022/05/29 14:42:41;;;;;;;2.58;1.10;;;17.50;78.00;;;;;;6162132;23;20039;-81
2022/05/29 14:45:15;;;;;;;3.90;1.17;;;16.20;83.40;;;;;;6143444;23;20005;-81
2022/05/29 14:48:05;;;;;;;3.40;0.93;;;15.40;87.30;;;;;;6194270;23;20005;-79
2022/05/29 14:50:46;;;;;;;3.17;0.70;;;14.80;84.00;;;;;;6143819;23;20308;-81
2022/05/29 14:53:24;;;;;;;4.75;0.80;;;14.80;81.30;;;;;;6194869;23;20001;-80
2022/05/29 14:56:02;;;;;;;2.72;0.80;;;15.40;85.30;;;;;;6167305;23;20028;-80
2022/05/29 14:58:37;;;;;;;2.78;0.70;;;16.10;80.40;;;;;;6168130;23;19997;-81
2022/05/29 16:31:07;;;;;;;3.15;0.82;;;30.90;41.20;;;;;;6161866;22;20080;-79
2022/05/29 16:33:39;;;;;;;2.75;0.80;;;30.20;43.50;;;;;;6222069;23;20019;-79
2022/05/29 16:36:18;;;;;;;3.22;1.00;;;30.10;43.60;;;;;;6197121;23;20032;-79
2022/05/29 16:51:18;;;;;;;5.18;1.15;;;26.10;45.90;;;;;;6224183;23;20047;-78
2022/05/29 16:53:48;;;;;;;;;;;24.90;47.80;;;;;;6192500;23;20365;-79
2022/05/29 16:57:02;;;;;;;2.70;1.13;;;24.00;48.70;;;;;;6174977;23;19957;-79
2022/05/29 16:59:48;;;;;;;3.50;1.60;;;23.60;50.90;;;;;;6103450;23;20284;-79
2022/05/29 17:02:28;;;;;;;4.53;1.00;;;23.30;52.70;;;;;;6084421;23;20018;-77
2022/05/29 17:05:27;;;;;;;3.25;1.10;;;23.40;53.00;;;;;;6132326;23;20006;-77
2022/05/29 17:08:37;;;;;;;3.38;1.02;;;24.80;50.90;;;;;;6132641;23;20319;-78
2022/05/29 17:11:22;;;;;;;2.83;0.80;;;26.60;47.40;;;;;;6045478;23;20007;-79
2022/05/29 17:13:49;;;;;;;4.60;0.90;;;27.30;46.50;;;;;;6044851;23;20360;-80
2022/05/29 17:16:16;;;;;;;2.50;1.00;;;26.70;46.30;;;;;;6100375;23;20021;-79
2022/05/29 17:18:43;;;;;;;4.53;1.10;;;25.50;47.40;;;;;;6108090;23;20017;-79
2022/05/29 17:21:42;;;;;;;3.22;0.73;;;25.40;47.70;;;;;;6131383;23;20266;-79
2022/05/29 17:24:19;;;;;;;5.25;0.77;;;25.80;47.80;;;;;;6134123;23;20013;-79
2022/05/29 17:26:59;;;;;;;3.20;0.80;;;25.70;48.00;;;;;;6111425;23;20077;-78
2022/05/29 17:29:27;;;;;;;3.83;1.10;;;24.10;49.10;;;;;;6135718;23;20026;-78
2022/05/29 17:32:19;;;;;;;;;;;23.30;50.20;;;;;;6137713;23;20021;-77
2022/05/29 17:35:06;;;;;;;4.43;1.17;;;22.50;50.90;;;;;;6132021;23;19907;-79
2022/05/29 17:41:45;;;;;;;;;;;25.00;50.40;;;;;;6196511;23;20016;-79
2022/05/29 17:44:43;;;;;;;5.68;1.30;;;25.90;49.40;;;;;;6192849;23;19900;-78
2022/05/29 17:51:51;;;;;;;1.98;0.70;;;26.20;47.30;;;;;;6045565;23;20093;-78
2022/05/29 17:54:52;;;;;;;3.17;1.00;;;26.10;46.80;;;;;;6021887;23;20368;-78
2022/05/29 17:57:21;;;;;;;4.13;1.10;;;26.30;46.30;;;;;;6020828;23;20011;-79
2022/05/29 17:59:50;;;;;;;2.88;0.85;;;26.30;46.10;;;;;;6045431;23;20298;-79
2022/05/29 18:02:16;;;;;;;3.58;0.93;;;26.10;46.10;;;;;;6146889;23;20024;-78
2022/05/29 18:04:45;;;;;;;3.42;1.20;;;25.60;46.90;;;;;;6194161;23;20056;-82
2022/05/29 18:07:13;;;;;;;3.78;0.95;;;25.00;47.80;;;;;;6142530;23;20052;-79
2022/05/29 18:26:09;;;;;;;4.75;1.25;;;23.10;50.20;;;;;;6183179;23;20066;-78
2022/05/29 18:28:35;;;;;;;4.32;1.30;;;21.80;53.10;;;;;;6197286;23;20019;-81
2022/05/29 18:34:48;;;;;;;4.63;1.13;;;19.80;56.50;;;;;;6224094;23;20190;-78
2022/05/29 18:37:14;;;;;;;3.58;1.08;;;18.80;58.90;;;;;;6224141;23;20005;-79
2022/05/29 18:39:40;;;;;;;3.05;1.20;;;18.20;59.70;;;;;;6186596;23;20301;-80
2022/05/29 18:42:06;;;;;;;3.15;1.00;;;17.80;60.90;;;;;;6137963;23;20013;-79
2022/05/29 18:44:32;;;;;;;3.67;1.15;;;17.20;62.10;;;;;;6164258;23;20008;-79
2022/05/29 18:46:59;;;;;;;3.15;0.95;;;16.90;62.60;;;;;;6185814;23;20024;-81
2022/05/29 18:49:28;;;;;;;4.68;0.95;;;16.60;63.40;;;;;;6168006;23;20009;-80
2022/05/29 18:51:56;;;;;;;5.47;1.60;;;16.30;64.40;;;;;;6168433;23;20005;-81
2022/05/29 18:54:21;;;;;;;5.45;1.35;;;16.10;65.30;;;;;;6167590;23;20013;-79
2022/05/29 18:56:48;;;;;;;4.05;1.42;;;15.90;65.30;;;;;;6193731;23;20008;-80
2022/05/29 18:59:15;;;;;;;3.50;1.30;;;15.80;65.90;;;;;;6166968;23;20096;-81
2022/05/29 19:01:41;;;;;;;3.22;1.10;;;15.60;66.50;;;;;;6166905;23;20040;-79
2022/05/29 19:04:08;;;;;;;3.30;1.08;;;15.30;67.00;;;;;;6167237;23;20012;-83
2022/05/29 19:06:34;;;;;;;3.10;0.73;;;15.10;68.30;;;;;;6193911;23;20291;-78
2022/05/29 19:09:00;;;;;;;3.83;1.10;;;14.80;70.00;;;;;;6166841;23;20056;-80
2022/05/29 19:11:28;;;;;;;5.40;1.35;;;14.60;71.30;;;;;;6193658;23;20031;-79
2022/05/29 19:13:57;;;;;;;1.92;0.80;;;14.50;72.00;;;;;;6143299;23;20009;-79
2022/05/29 19:16:28;;;;;;;2.58;0.85;;;14.30;72.90;;;;;;6167752;23;20017;-79
2022/05/29 19:18:56;;;;;;;2.63;0.85;;;14.30;72.90;;;;;;6144801;23;20063;-78
2022/05/29 19:21:24;;;;;;;2.70;0.73;;;14.10;73.60;;;;;;6196655;23;20350;-80
2022/05/29 19:23:52;;;;;;;3.70;1.05;;;14.10;73.60;;;;;;6132732;23;20072;-80
2022/05/29 19:26:23;;;;;;;2.63;0.77;;;13.90;74.30;;;;;;6110679;23;20094;-79
2022/05/29 19:28:52;;;;;;;4.68;0.90;;;13.80;74.90;;;;;;6132124;23;20025;-79
2022/05/29 19:31:45;;;;;;;1.83;0.70;;;13.70;75.80;;;;;;6130643;23;20375;-78
2022/05/29 19:34:13;;;;;;;2.08;0.93;;;13.40;76.20;;;;;;6100846;23;20014;-80
2022/05/29 19:36:43;;;;;;;2.08;0.98;;;13.30;77.00;;;;;;6134775;23;20004;-78
2022/05/29 19:39:11;;;;;;;2.92;0.93;;;13.20;77.30;;;;;;6134211;23;20022;-80
2022/05/29 19:41:37;;;;;;;3.10;1.10;;;13.10;76.90;;;;;;6134632;23;20010;-79
2022/05/29 19:44:04;;;;;;;4.60;1.17;;;13.00;77.30;;;;;;6131808;23;20006;-79
2022/05/29 19:46:32;;;;;;;3.17;1.13;;;12.80;77.70;;;;;;6130838;23;20091;-78
2022/05/29 19:48:59;;;;;;;;;;;12.80;78.10;;;;;;6107641;23;20005;-79
2022/05/29 20:16:50;;;;;;;3.33;1.08;;;12.10;79.30;;;;;;6096485;23;20072;-78
2022/05/29 21:30:40;;;;;;;4.28;1.67;;;10.50;90.50;;;;;;6155520;23;20036;-78
2022/05/29 21:33:06;;;;;;;3.50;1.65;;;10.40;90.80;;;;;;6170352;23;20031;-78
2022/05/29 21:35:36;;;;;;;5.28;1.55;;;10.30;90.80;;;;;;6145753;23;20008;-78
2022/05/29 21:38:03;;;;;;;5.13;1.48;;;10.30;91.00;;;;;;6169252;23;20005;-79
2022/05/29 21:40:33;;;;;;;3.95;1.42;;;10.30;91.40;;;;;;6169832;23;19993;-78
2022/05/29 21:42:59;;;;;;;4.57;1.67;;;10.30;91.40;;;;;;6170723;23;20017;-78
2022/05/29 21:45:25;;;;;;;4.72;1.60;;;10.30;91.70;;;;;;6167040;23;20004;-78
2022/05/29 21:47:50;;;;;;;3.78;1.67;;;10.20;91.70;;;;;;6168423;23;20005;-78
2022/05/29 21:50:18;;;;;;;4.05;1.58;;;10.20;92.00;;;;;;6167712;23;20297;-78
2022/05/29 21:52:44;;;;;;;3.40;1.37;;;10.20;92.10;;;;;;6143803;23;20239;-78
2022/05/29 21:55:13;;;;;;;3.90;1.92;;;10.10;92.10;;;;;;6167431;23;20412;-78
2022/05/29 21:57:40;;;;;;;3.97;1.98;;;10.10;92.30;;;;;;6168340;23;20210;-79
2022/05/29 22:00:10;;;;;;;7.10;2.00;;;10.00;92.60;;;;;;6142211;23;20012;-79
2022/05/29 22:02:37;;;;;;;3.88;1.90;;;9.90;93.00;;;;;;6168258;23;20073;-78
2022/05/29 22:05:07;;;;;;;5.90;2.20;;;9.80;93.30;;;;;;6167454;23;20001;-79
2022/05/29 22:07:36;;;;;;;4.78;1.80;;;9.70;93.50;;;;;;6168125;23;20048;-78
2022/05/29 22:10:04;;;;;;;2.63;1.58;;;9.70;93.50;;;;;;6168095;23;20195;-78
2022/05/29 22:12:32;;;;;;;2.83;1.58;;;9.70;93.50;;;;;;6143300;23;20001;-78
2022/05/29 22:14:58;;;;;;;3.43;1.70;;;9.60;93.60;;;;;;6143360;23;20072;-79
2022/05/29 22:17:24;;;;;;;3.58;1.83;;;9.60;93.40;;;;;;6142224;23;20401;-78
2022/05/29 22:19:50;;;;;;;5.28;1.90;;;9.60;93.60;;;;;;6143607;23;20016;-78
2022/05/29 22:22:16;;;;;;;3.88;1.95;;;9.60;93.60;;;;;;6167364;23;20009;-79
2022/05/29 22:24:43;;;;;;;4.85;1.98;;;9.60;93.60;;;;;;6168663;23;19989;-79
2022/05/29 22:27:09;;;;;;;3.85;1.80;;;9.50;93.70;;;;;;6167775;23;20012;-78
2022/05/29 22:29:36;;;;;;;5.28;2.10;;;9.60;93.40;;;;;;6194624;23;20001;-78
2022/05/29 22:32:06;;;;;;;4.85;2.20;;;9.60;93.80;;;;;;6168727;23;20021;-78
2022/05/29 22:34:55;;;;;;;4.20;1.83;;;9.60;93.90;;;;;;6195503;23;20004;-77
2022/05/29 22:37:21;;;;;;;5.18;1.80;;;9.60;93.70;;;;;;6168789;23;20068;-78
2022/05/29 22:39:49;;;;;;;7.63;2.20;;;9.60;93.60;;;;;;6169628;23;20032;-79
2022/05/29 22:42:16;;;;;;;8.40;2.27;;;9.60;93.50;;;;;;6168244;23;20040;-79
2022/05/29 22:44:44;;;;;;;5.45;2.55;;;9.60;93.70;;;;;;6169132;23;20409;-77
2022/05/29 22:47:36;;;;;;;4.83;1.73;;;9.50;93.90;;;;;;6192386;23;20215;-80
2022/05/29 22:50:10;;;;;;;3.97;1.67;;;9.50;94.20;;;;;;6195658;23;20223;-78
2022/05/29 22:52:49;;;;;;;4.00;2.20;;;9.40;94.30;;;;;;6195872;23;20020;-77
2022/05/29 22:55:21;;;;;;;5.32;2.05;;;9.40;94.50;;;;;;6194445;23;20109;-77
2022/05/29 22:57:49;;;;;;;3.25;1.83;;;9.30;94.60;;;;;;6195466;23;20060;-78
2022/05/29 23:00:23;;;;;;;3.00;1.87;;;9.30;94.80;;;;;;6142829;23;20048;-78
